Time;durP1;ratioP1;P1;durP2;ratioP2;P2;SDS_P1;SDS_P2;PMS_P1;PMS_P2;Temp;Humidity;BMP_temperature;BMP_pressure;BME280_temperature;BME280_humidity;BME280_pressure;Samples;Min_cycle;Max_cycle;Signal;HPM_P1;HPM_P2
2023/07/01 00:00:06;;;;;;;5.78;5.28;;;;;;;23.62;52.36;99058.16;5074150;28;20046;-77
2023/07/01 00:02:32;;;;;;;6.20;5.63;;;;;;;23.42;52.16;99033.94;5075288;28;20032;-77
2023/07/01 00:04:59;;;;;;;6.43;5.80;;;;;;;23.29;52.20;99010.28;5074914;28;20474;-78
2023/07/01 00:07:24;;;;;;;5.93;5.40;;;;;;;23.11;52.09;98992.81;5074433;28;20108;-77
2023/07/01 00:09:50;;;;;;;5.70;5.10;;;;;;;23.20;52.43;99025.38;5074647;28;20492;-77
2023/07/01 00:12:15;;;;;;;5.82;5.32;;;;;;;23.22;52.75;99042.88;5074887;28;20394;-78
2023/07/01 00:14:41;;;;;;;7.32;6.25;;;;;;;23.69;53.05;99114.47;5074661;28;20029;-78
2023/07/01 00:17:09;;;;;;;6.38;5.78;;;;;;;23.18;53.48;99044.50;5074613;28;20032;-78
2023/07/01 00:19:35;;;;;;;6.28;5.47;;;;;;;23.40;53.64;99081.91;5073103;28;20070;-77
2023/07/01 00:22:02;;;;;;;6.45;5.82;;;;;;;23.58;53.84;99112.88;5074566;28;20025;-76
2023/07/01 00:24:27;;;;;;;6.15;5.65;;;;;;;23.20;53.83;99057.72;5074862;28;20028;-76
2023/07/01 00:26:52;;;;;;;5.95;5.38;;;;;;;22.96;53.73;99007.09;5074547;28;20557;-77
2023/07/01 00:29:18;;;;;;;6.80;6.10;;;;;;;23.32;54.10;99083.28;5075233;28;20020;-76
2023/07/01 00:31:43;;;;;;;6.28;5.78;;;;;;;23.34;53.88;99080.31;5078075;28;20028;-76
2023/07/01 00:34:09;;;;;;;7.15;6.07;;;;;;;23.33;53.90;99081.38;5076466;28;20050;-78
2023/07/01 00:36:34;;;;;;;7.05;6.30;;;;;;;23.28;54.07;99074.13;5074323;28;20024;-77
2023/07/01 00:38:59;;;;;;;7.28;6.25;;;;;;;23.10;54.18;99074.69;5074526;28;20067;-77
2023/07/01 00:41:25;;;;;;;6.75;6.15;;;;;;;23.43;54.48;99116.38;5073010;28;20028;-78
2023/07/01 00:43:50;;;;;;;6.50;5.90;;;;;;;23.47;54.05;99109.38;5072770;28;20107;-77
2023/07/01 00:46:16;;;;;;;5.95;5.35;;;;;;;23.02;54.23;99032.94;5074287;28;20024;-77
2023/07/01 00:48:42;;;;;;;6.32;5.75;;;;;;;23.14;54.15;99049.63;5072993;28;20035;-77
2023/07/01 00:51:08;;;;;;;6.80;6.20;;;;;;;23.18;54.17;99059.88;5074557;28;20086;-78
2023/07/01 00:53:33;;;;;;;6.78;5.68;;;;;;;23.03;54.15;99045.31;5075664;28;20501;-77
2023/07/01 00:55:59;;;;;;;5.95;5.40;;;;;;;23.34;54.47;99083.00;5074239;28;20032;-78
2023/07/01 00:58:24;;;;;;;6.40;5.80;;;;;;;22.92;54.42;99019.47;5073688;28;20045;-76
2023/07/01 01:00:50;;;;;;;6.30;5.80;;;;;;;23.00;54.58;99061.22;5073802;28;20557;-76
2023/07/01 01:03:26;;;;;;;6.13;5.63;;;;;;;23.41;54.48;99107.78;5073449;28;20017;-78
2023/07/01 01:06:18;;;;;;;10.20;6.15;;;;;;;23.35;54.75;99106.97;5073379;28;20024;-76
2023/07/01 01:08:46;;;;;;;6.47;5.93;;;;;;;23.35;54.84;99109.66;5065231;28;20036;-77
2023/07/01 01:11:14;;;;;;;5.90;5.40;;;;;;;23.02;54.78;99059.06;5073413;28;20052;-77
2023/07/01 01:13:43;;;;;;;6.70;5.57;;;;;;;23.08;54.85;99056.09;5073374;28;20031;-78
2023/07/01 01:16:10;;;;;;;7.65;6.32;;;;;;;22.86;54.98;99017.06;5073456;28;20094;-78
2023/07/01 01:18:36;;;;;;;5.70;5.07;;;;;;;22.60;54.65;98978.56;5073305;28;20030;-77
2023/07/01 01:21:04;;;;;;;6.55;5.90;;;;;;;22.99;54.72;99060.41;5073295;28;20020;-78
2023/07/01 01:23:36;;;;;;;6.35;5.85;;;;;;;22.45;54.63;98947.09;5073317;28;20021;-78
2023/07/01 01:26:07;;;;;;;5.93;5.32;;;;;;;23.41;54.77;99097.81;5073159;28;20036;-76
2023/07/01 01:28:34;;;;;;;6.03;5.53;;;;;;;23.30;54.69;99085.44;5071994;28;20024;-77
2023/07/01 01:31:00;;;;;;;6.30;5.70;;;;;;;23.41;54.71;99097.81;5073115;28;20032;-78
2023/07/01 01:33:25;;;;;;;5.95;5.45;;;;;;;23.36;54.83;99088.91;5071566;28;20025;-77
2023/07/01 01:35:52;;;;;;;6.65;5.88;;;;;;;22.90;54.81;99027.03;5072894;28;20103;-78
2023/07/01 01:38:22;;;;;;;6.25;5.65;;;;;;;23.31;54.88;99092.44;5072607;28;20024;-78
2023/07/01 01:40:56;;;;;;;6.72;5.68;;;;;;;22.57;54.75;98993.38;5072616;28;20044;-78
2023/07/01 01:43:41;;;;;;;6.55;5.75;;;;;;;22.77;55.13;99041.81;5072644;28;20017;-78
2023/07/01 01:46:07;;;;;;;6.70;5.95;;;;;;;22.81;55.00;99069.03;5072817;28;20020;-78
2023/07/01 01:48:34;;;;;;;6.38;5.82;;;;;;;22.91;55.50;99087.06;5072570;28;20090;-78
2023/07/01 01:51:02;;;;;;;6.88;6.28;;;;;;;22.89;55.34;99092.72;5072561;28;20020;-78
2023/07/01 01:53:29;;;;;;;6.30;5.80;;;;;;;22.86;55.23;99082.47;5072555;28;20476;-78
2023/07/01 01:55:56;;;;;;;6.93;5.68;;;;;;;22.30;55.55;99011.66;5072451;28;20048;-78
2023/07/01 01:58:21;;;;;;;6.55;5.90;;;;;;;22.67;55.41;99090.25;5072215;28;20044;-78
2023/07/01 02:00:47;;;;;;;6.90;6.20;;;;;;;22.83;55.47;99108.06;5071148;28;20406;-78
2023/07/01 02:03:13;;;;;;;9.93;6.30;;;;;;;22.49;55.44;99055.78;5072669;28;20024;-77
2023/07/01 02:05:38;;;;;;;7.03;6.15;;;;;;;22.70;55.55;99084.34;5072391;28;20540;-78
2023/07/01 02:08:04;;;;;;;6.65;6.05;;;;;;;22.11;55.74;98996.00;5072169;28;20046;-76
2023/07/01 02:10:32;;;;;;;6.70;6.03;;;;;;;22.61;56.02;99096.69;5072721;28;20048;-77
2023/07/01 02:12:57;;;;;;;6.63;5.95;;;;;;;22.30;56.37;99052.00;5072480;28;20103;-76
2023/07/01 02:15:23;;;;;;;6.38;5.78;;;;;;;22.61;56.33;99109.34;5072089;28;20493;-75
2023/07/01 02:17:48;;;;;;;6.43;5.82;;;;;;;22.32;56.55;99057.91;5071994;28;20047;-76
2023/07/01 02:20:14;;;;;;;6.75;6.22;;;;;;;22.64;56.72;99106.13;5070629;28;20019;-77
2023/07/01 02:22:39;;;;;;;7.07;6.20;;;;;;;22.52;56.58;99079.47;5072271;28;20025;-77
2023/07/01 02:25:07;;;;;;;6.25;5.72;;;;;;;22.31;56.58;99032.09;5072197;28;20504;-75
2023/07/01 02:27:32;;;;;;;6.60;6.00;;;;;;;22.56;56.23;99071.69;5072138;28;20029;-78
2023/07/01 02:29:58;;;;;;;6.85;6.25;;;;;;;22.29;56.24;99042.28;5071931;28;20017;-76
2023/07/01 02:32:24;;;;;;;6.20;5.65;;;;;;;22.32;56.45;99055.22;5070723;28;20016;-77
2023/07/01 02:34:50;;;;;;;8.05;6.30;;;;;;;22.46;56.06;99075.97;5071624;28;20413;-79
2023/07/01 02:37:15;;;;;;;7.03;5.93;;;;;;;22.31;56.17;99073.25;5071825;28;20024;-77
2023/07/01 02:39:42;;;;;;;7.10;6.38;;;;;;;21.99;56.24;99030.38;5071846;28;20035;-77
2023/07/01 02:42:08;;;;;;;6.47;5.88;;;;;;;22.48;56.33;99122.25;5071610;28;20042;-77
2023/07/01 02:44:33;;;;;;;9.07;6.55;;;;;;;22.46;56.32;99132.47;5072060;28;20021;-78
2023/07/01 02:46:59;;;;;;;6.70;6.05;;;;;;;22.30;56.37;99100.41;5071723;28;20027;-76
2023/07/01 02:49:24;;;;;;;6.63;6.03;;;;;;;22.00;56.50;99063.44;5071906;28;20474;-76
2023/07/01 02:51:49;;;;;;;7.47;6.72;;;;;;;21.66;56.46;99028.91;5071618;28;20027;-77
2023/07/01 02:54:15;;;;;;;9.63;6.35;;;;;;;22.15;56.54;99123.47;5071569;28;20020;-76
2023/07/01 02:56:40;;;;;;;6.97;6.43;;;;;;;22.01;56.67;99084.66;5071787;28;20016;-77
2023/07/01 02:59:06;;;;;;;7.55;6.05;;;;;;;21.89;56.68;99079.53;5071443;28;20079;-77
2023/07/01 03:01:31;;;;;;;7.63;6.53;;;;;;;21.76;56.65;99058.50;5071330;28;20024;-77
2023/07/01 03:03:56;;;;;;;7.18;6.57;;;;;;;22.24;56.73;99131.84;5071539;28;20063;-78
2023/07/01 03:06:22;;;;;;;6.85;6.07;;;;;;;21.90;56.65;99085.72;5071586;28;20055;-78
2023/07/01 03:08:47;;;;;;;6.95;6.07;;;;;;;21.53;56.34;99024.81;5071745;28;20386;-77
2023/07/01 03:11:13;;;;;;;10.48;7.68;;;;;;;21.82;56.67;99078.16;5071519;28;20109;-77
2023/07/01 03:13:38;;;;;;;7.05;6.43;;;;;;;22.23;56.69;99129.41;5071536;28;20027;-77
2023/07/01 03:16:06;;;;;;;9.45;7.03;;;;;;;21.92;56.59;99104.25;5071568;28;20013;-75
2023/07/01 03:18:32;;;;;;;8.20;7.40;;;;;;;21.74;56.76;99076.78;5071768;28;20027;-77
2023/07/01 03:21:00;;;;;;;8.38;7.50;;;;;;;21.56;56.73;99051.16;5077761;28;20024;-77
2023/07/01 03:23:27;;;;;;;8.13;7.35;;;;;;;21.28;56.80;98995.13;5077155;28;20032;-77
2023/07/01 03:25:52;;;;;;;8.70;7.72;;;;;;;21.98;56.59;99093.25;5080506;28;20080;-78
2023/07/01 03:28:17;;;;;;;8.40;7.53;;;;;;;21.24;56.74;98981.44;5078611;28;20084;-77
2023/07/01 03:30:43;;;;;;;8.65;7.63;;;;;;;22.03;56.86;99108.63;5077870;28;20103;-77
2023/07/01 03:33:12;;;;;;;8.95;7.43;;;;;;;22.11;56.94;99113.50;5077524;28;20024;-78
2023/07/01 03:35:38;;;;;;;8.43;7.57;;;;;;;22.11;57.05;99124.25;5077626;28;20091;-78
2023/07/01 03:38:03;;;;;;;7.60;6.72;;;;;;;21.71;57.13;99077.28;5076487;28;20484;-78
2023/07/01 03:40:29;;;;;;;8.10;7.22;;;;;;;22.13;57.03;99131.00;5077674;28;20104;-77
2023/07/01 03:42:54;;;;;;;7.65;6.65;;;;;;;21.51;56.94;99023.44;5077625;28;20024;-78
2023/07/01 03:45:19;;;;;;;6.85;6.35;;;;;;;21.76;56.78;99053.13;5077513;28;20016;-78
2023/07/01 03:47:45;;;;;;;7.90;7.10;;;;;;;21.99;56.69;99075.25;5081053;28;20025;-76
2023/07/01 03:50:12;;;;;;;7.85;7.05;;;;;;;21.69;56.80;99049.06;5081526;28;20511;-78
2023/07/01 03:52:39;;;;;;;8.32;7.13;;;;;;;22.28;56.61;99115.97;5077612;28;20464;-78
2023/07/01 03:55:06;;;;;;;7.53;6.75;;;;;;;21.71;56.72;99025.44;5077433;28;20031;-78
2023/07/01 03:57:33;;;;;;;8.48;7.72;;;;;;;21.73;56.61;99032.16;5077648;28;20040;-78
2023/07/01 03:59:58;;;;;;;7.25;6.55;;;;;;;21.79;56.54;99039.19;5077609;28;20059;-78
2023/07/01 04:02:23;;;;;;;9.10;7.38;;;;;;;21.82;56.44;99049.41;5077668;28;20024;-76
2023/07/01 04:04:49;;;;;;;8.27;7.55;;;;;;;21.98;56.47;99087.88;5076274;28;20024;-78
2023/07/01 04:07:15;;;;;;;8.18;7.38;;;;;;;22.10;56.54;99096.56;5077670;28;20025;-77
2023/07/01 04:09:42;;;;;;;8.25;7.45;;;;;;;22.28;56.40;99115.97;5077920;28;20055;-78
2023/07/01 04:12:08;;;;;;;9.35;7.40;;;;;;;21.88;56.43;99060.97;5077468;28;20024;-78
2023/07/01 04:14:33;;;;;;;9.20;7.60;;;;;;;21.94;56.44;99067.19;5077242;28;20062;-78
2023/07/01 04:16:59;;;;;;;10.68;7.93;;;;;;;21.76;56.31;99023.56;5077477;28;20511;-78
2023/07/01 04:19:24;;;;;;;8.07;6.57;;;;;;;21.95;56.40;99037.34;5077664;28;20020;-77
2023/07/01 04:21:49;;;;;;;8.40;7.60;;;;;;;21.88;56.36;99023.34;5077680;28;20024;-78
2023/07/01 04:24:15;;;;;;;8.75;7.72;;;;;;;22.46;56.53;99102.06;5077535;28;20103;-77
2023/07/01 04:26:44;;;;;;;10.88;7.22;;;;;;;22.47;56.44;99099.09;5077522;28;20028;-78
2023/07/01 04:29:10;;;;;;;11.15;7.63;;;;;;;22.10;56.39;99023.16;5077591;28;20483;-78
2023/07/01 04:31:35;;;;;;;10.18;7.55;;;;;;;22.69;56.30;99106.94;5073302;28;20032;-77
2023/07/01 04:34:01;;;;;;;8.85;8.05;;;;;;;22.58;56.09;99086.47;5074061;28;20056;-77
2023/07/01 04:36:26;;;;;;;8.70;7.90;;;;;;;22.39;55.99;99042.34;5074137;28;20111;-77
2023/07/01 04:38:51;;;;;;;19.42;8.27;;;;;;;22.14;55.99;99002.72;5073811;28;20028;-77
2023/07/01 04:41:17;;;;;;;12.23;8.77;;;;;;;22.41;56.11;99024.03;5073879;28;20420;-78
2023/07/01 04:43:42;;;;;;;9.30;8.40;;;;;;;22.48;56.04;99059.56;5072544;28;20074;-77
2023/07/01 04:46:08;;;;;;;10.13;9.05;;;;;;;22.29;56.14;99015.41;5073875;28;20025;-78
2023/07/01 04:48:52;;;;;;;9.70;8.80;;;;;;;22.77;56.01;99081.38;5072539;28;20504;-77
2023/07/01 04:51:18;;;;;;;10.02;8.48;;;;;;;22.97;55.97;99094.88;5073767;28;20025;-77
2023/07/01 04:53:43;;;;;;;10.68;8.40;;;;;;;23.12;56.06;99105.66;5073717;28;20040;-77
2023/07/01 04:56:08;;;;;;;10.55;8.18;;;;;;;22.72;55.95;99032.94;5073651;28;20679;-78
2023/07/01 04:58:34;;;;;;;8.60;7.65;;;;;;;22.20;55.95;98954.06;5073528;28;20055;-77
2023/07/01 05:00:59;;;;;;;8.82;7.88;;;;;;;23.27;56.01;99114.81;5073697;28;20093;-78
2023/07/01 05:03:25;;;;;;;8.85;7.55;;;;;;;22.83;55.93;99059.59;5073618;28;20069;-77
2023/07/01 05:05:50;;;;;;;8.07;7.03;;;;;;;22.70;55.54;99000.09;5073789;28;20021;-78
2023/07/01 05:08:15;;;;;;;7.70;6.95;;;;;;;23.42;55.52;99109.38;5073442;28;20053;-77
2023/07/01 05:10:41;;;;;;;7.70;7.03;;;;;;;22.94;55.03;99019.22;5072190;28;20420;-77
2023/07/01 05:13:06;;;;;;;7.13;6.53;;;;;;;22.96;54.93;99022.44;5073160;28;20028;-76
2023/07/01 05:15:32;;;;;;;6.78;6.10;;;;;;;23.56;54.99;99112.34;5073072;28;20174;-77
2023/07/01 05:17:57;;;;;;;7.30;6.70;;;;;;;22.90;54.73;99007.38;5071930;28;20031;-78
2023/07/01 05:20:22;;;;;;;7.68;6.93;;;;;;;23.10;54.32;99037.00;5073160;28;20024;-77
2023/07/01 05:22:48;;;;;;;8.20;7.40;;;;;;;23.65;54.20;99116.09;5073260;28;20174;-77
2023/07/01 05:25:13;;;;;;;7.38;6.68;;;;;;;23.67;53.54;99122.03;5073191;28;20048;-78
2023/07/01 05:27:38;;;;;;;6.97;6.22;;;;;;;23.57;53.64;99105.88;5072931;28;20039;-78
2023/07/01 05:30:05;;;;;;;8.73;6.88;;;;;;;22.98;53.25;99017.59;5072830;28;20536;-79
2023/07/01 05:32:30;;;;;;;7.53;6.82;;;;;;;23.65;53.42;99122.28;5072882;28;20027;-76
2023/07/01 05:34:56;;;;;;;8.00;7.30;;;;;;;23.75;53.18;99141.13;5071712;28;20021;-77
2023/07/01 05:37:21;;;;;;;7.43;6.50;;;;;;;23.41;52.97;99068.16;5073163;28;20046;-77
2023/07/01 05:39:47;;;;;;;7.75;7.03;;;;;;;23.31;52.90;99057.41;5071782;28;20405;-78
2023/07/01 05:42:12;;;;;;;8.05;7.25;;;;;;;23.93;52.95;99155.94;5072893;28;20049;-78
2023/07/01 05:44:38;;;;;;;8.00;7.30;;;;;;;23.99;52.59;99127.06;5072966;28;20091;-78
2023/07/01 05:47:03;;;;;;;6.60;6.00;;;;;;;24.01;52.26;99123.00;5072937;28;20481;-78
2023/07/01 05:49:29;;;;;;;7.57;6.97;;;;;;;23.59;52.07;99056.00;5072759;28;20027;-78
2023/07/01 05:51:54;;;;;;;9.45;7.28;;;;;;;23.54;51.94;99053.31;5073008;28;20073;-77
2023/07/01 05:54:20;;;;;;;8.18;7.30;;;;;;;23.66;52.32;99063.81;5072530;28;20413;-77
2023/07/01 05:56:45;;;;;;;8.30;7.50;;;;;;;23.67;52.22;99060.03;5072743;28;20016;-77
2023/07/01 05:59:13;;;;;;;8.18;7.13;;;;;;;23.61;52.35;99053.03;5072287;28;20505;-77
2023/07/01 06:01:38;;;;;;;8.13;7.18;;;;;;;23.75;52.44;99068.34;5071147;28;20020;-78
2023/07/01 06:04:04;;;;;;;8.35;7.55;;;;;;;23.73;52.57;99067.00;5072449;28;20020;-77
2023/07/01 06:06:29;;;;;;;7.97;7.38;;;;;;;23.14;52.47;98962.66;5072125;28;20405;-77
2023/07/01 06:08:55;;;;;;;7.47;6.82;;;;;;;23.65;52.15;99035.25;5072392;28;20104;-77
2023/07/01 06:11:20;;;;;;;7.90;7.25;;;;;;;24.03;51.95;99093.06;5072145;28;20029;-77
2023/07/01 06:13:47;;;;;;;8.75;7.47;;;;;;;24.13;52.22;99094.91;5072331;28;20021;-76
2023/07/01 06:16:15;;;;;;;7.97;6.72;;;;;;;24.18;51.74;99102.97;5072085;28;20024;-78
2023/07/01 06:18:41;;;;;;;8.27;5.97;;;;;;;23.87;51.47;99065.38;5071955;28;20082;-78
2023/07/01 06:21:08;;;;;;;6.32;5.72;;;;;;;24.24;50.94;99105.38;5070639;28;20024;-78
2023/07/01 06:23:34;;;;;;;6.40;5.85;;;;;;;24.51;50.79;99134.66;5069047;28;20402;-77
2023/07/01 06:26:00;;;;;;;6.60;6.00;;;;;;;24.22;50.92;99074.34;5069757;28;20032;-78
2023/07/01 06:28:25;;;;;;;6.47;5.82;;;;;;;24.63;50.85;99118.94;5075272;28;20016;-77
2023/07/01 06:30:51;;;;;;;7.05;5.72;;;;;;;24.33;50.66;99082.16;5071531;28;20032;-78
2023/07/01 06:33:16;;;;;;;6.20;5.60;;;;;;;24.12;50.67;99042.84;5071831;28;20104;-77
2023/07/01 06:35:43;;;;;;;6.40;5.57;;;;;;;24.31;50.58;99075.41;5066258;28;20619;-78
2023/07/01 06:38:09;;;;;;;7.47;6.13;;;;;;;24.70;50.14;99116.75;5067400;28;20082;-78
2023/07/01 06:40:34;;;;;;;7.45;6.00;;;;;;;24.30;50.01;99050.31;5066101;28;20417;-78
2023/07/01 06:43:00;;;;;;;6.97;6.38;;;;;;;24.25;50.32;99044.94;5067673;28;20035;-77
2023/07/01 06:45:25;;;;;;;7.03;6.35;;;;;;;24.51;50.86;99077.16;5071438;28;20048;-76
2023/07/01 06:47:50;;;;;;;7.60;6.90;;;;;;;24.94;50.94;99140.34;5069391;28;20089;-77
2023/07/01 06:50:16;;;;;;;6.53;6.03;;;;;;;24.50;50.81;99076.38;5070860;28;20103;-77
2023/07/01 06:52:41;;;;;;;8.27;7.57;;;;;;;24.69;51.16;99098.13;5072613;28;20475;-77
2023/07/01 06:55:07;;;;;;;13.55;7.82;;;;;;;25.01;50.83;99147.06;5069405;28;20028;-77
2023/07/01 06:57:33;;;;;;;8.55;7.35;;;;;;;24.42;50.93;99047.28;5069586;28;20052;-77
2023/07/01 06:59:59;;;;;;;8.43;7.82;;;;;;;24.87;51.00;99112.84;5071403;28;20115;-78
2023/07/01 07:02:25;;;;;;;8.55;7.50;;;;;;;24.53;50.78;99051.53;5071585;28;20436;-77
2023/07/01 07:04:52;;;;;;;8.68;7.82;;;;;;;25.03;50.88;99122.47;5068308;28;20035;-78
2023/07/01 07:07:18;;;;;;;8.15;7.45;;;;;;;24.83;50.78;99085.59;5064157;28;20024;-77
2023/07/01 07:09:44;;;;;;;8.20;7.50;;;;;;;24.61;50.34;99042.84;5061719;28;20028;-77
2023/07/01 07:12:09;;;;;;;7.28;6.68;;;;;;;25.09;50.36;99109.72;5069191;28;20038;-78
2023/07/01 07:14:35;;;;;;;8.00;7.07;;;;;;;24.40;50.35;98996.28;5065414;28;20520;-77
2023/07/01 07:17:00;;;;;;;6.90;6.30;;;;;;;25.03;49.79;99077.34;5067898;28;20531;-77
2023/07/01 07:19:26;;;;;;;7.50;6.78;;;;;;;25.14;49.57;99085.34;5070514;28;20024;-77
2023/07/01 07:21:51;;;;;;;7.85;7.15;;;;;;;25.49;49.09;99130.97;5070795;28;20035;-77
2023/07/01 07:24:16;;;;;;;7.88;7.07;;;;;;;25.49;49.05;99114.75;5069661;28;20508;-77
2023/07/01 07:26:42;;;;;;;9.00;7.00;;;;;;;25.03;48.76;99039.53;5064824;28;20059;-76
2023/07/01 07:29:07;;;;;;;6.75;6.10;;;;;;;25.63;48.89;99109.47;5067707;28;20390;-77
2023/07/01 07:31:33;;;;;;;7.30;6.60;;;;;;;25.82;48.50;99129.31;5068138;28;20035;-76
2023/07/01 07:33:58;;;;;;;7.50;6.63;;;;;;;25.01;48.14;99003.09;5068847;28;20029;-77
2023/07/01 07:36:23;;;;;;;7.68;7.03;;;;;;;24.73;48.39;98939.06;5070515;28;20127;-77
2023/07/01 07:38:49;;;;;;;7.15;6.45;;;;;;;26.02;48.21;99141.00;5070463;28;20025;-77
2023/07/01 07:41:14;;;;;;;11.07;7.00;;;;;;;25.73;48.07;99136.44;5070578;28;20528;-76
2023/07/01 07:43:40;;;;;;;6.70;6.13;;;;;;;26.01;47.96;99104.19;5068957;28;20032;-77
2023/07/01 07:46:05;;;;;;;6.88;6.28;;;;;;;26.22;48.00;99138.84;5070818;28;20020;-76
2023/07/01 07:48:30;;;;;;;7.10;6.50;;;;;;;26.33;47.74;99123.31;5067717;28;20040;-77
2023/07/01 07:50:58;;;;;;;7.40;6.75;;;;;;;26.02;47.62;99060.66;5069636;28;20090;-77
2023/07/01 07:53:23;;;;;;;7.13;6.43;;;;;;;26.20;47.45;99076.09;5067159;28;20028;-77
2023/07/01 07:55:48;;;;;;;7.30;6.70;;;;;;;26.27;46.93;99081.16;5068285;28;20424;-78
2023/07/01 07:58:14;;;;;;;9.13;8.25;;;;;;;26.28;47.10;99071.94;5065697;28;20113;-76
2023/07/01 08:00:39;;;;;;;7.57;6.88;;;;;;;26.40;46.63;99087.75;5066162;28;20055;-76
2023/07/01 08:03:04;;;;;;;7.63;6.90;;;;;;;26.29;46.64;99044.56;5068295;28;20035;-76
2023/07/01 08:05:30;;;;;;;7.45;6.75;;;;;;;26.42;46.61;99050.38;5069581;28;20081;-77
2023/07/01 08:07:56;;;;;;;7.50;6.80;;;;;;;26.72;46.52;99085.09;5072166;28;20024;-76
2023/07/01 08:10:21;;;;;;;7.65;7.05;;;;;;;26.23;46.46;99001.63;5071880;28;20008;-77
2023/07/01 08:12:46;;;;;;;7.97;6.32;;;;;;;27.00;46.31;99086.06;5071300;28;20485;-78
2023/07/01 08:15:12;;;;;;;7.20;6.50;;;;;;;27.12;45.76;99088.28;5070754;28;20043;-76
2023/07/01 08:17:38;;;;;;;8.13;7.32;;;;;;;27.28;45.76;99107.78;5069571;28;20035;-76
2023/07/01 08:20:04;;;;;;;7.13;6.53;;;;;;;26.99;45.41;99051.94;5071688;28;20413;-76
2023/07/01 08:22:30;;;;;;;7.03;6.28;;;;;;;27.16;45.13;99068.41;5072559;28;20031;-77
2023/07/01 08:24:57;;;;;;;8.13;7.32;;;;;;;27.48;45.28;99102.00;5071605;28;20537;-76
2023/07/01 08:27:22;;;;;;;8.10;7.40;;;;;;;27.32;45.17;99060.81;5072160;28;20028;-77
2023/07/01 08:29:48;;;;;;;8.45;7.53;;;;;;;27.60;44.93;99083.34;5071536;28;20032;-77
2023/07/01 08:32:13;;;;;;;8.18;7.47;;;;;;;27.47;44.81;99048.88;5070917;28;20078;-77
2023/07/01 08:34:39;;;;;;;8.23;7.53;;;;;;;27.72;44.18;99066.59;5070892;28;20515;-76
2023/07/01 08:37:04;;;;;;;7.40;6.10;;;;;;;27.45;43.93;99029.38;5071236;28;20026;-76
2023/07/01 08:39:30;;;;;;;8.25;7.57;;;;;;;27.53;43.84;99015.16;5068579;28;20024;-77
2023/07/01 08:41:59;;;;;;;6.43;5.72;;;;;;;28.02;43.71;99068.69;5063014;28;20595;-76
2023/07/01 08:44:25;;;;;;;5.78;5.20;;;;;;;27.99;42.85;99044.06;5072471;28;20578;-77
2023/07/01 08:46:55;;;;;;;7.05;6.32;;;;;;;27.99;42.61;99027.78;5068539;28;20103;-77
2023/07/01 08:49:22;;;;;;;8.10;7.30;;;;;;;28.35;42.31;99063.94;5070278;28;20103;-78
2023/07/01 08:51:51;;;;;;;5.88;5.30;;;;;;;28.23;42.00;99027.50;5070024;28;20475;-77
2023/07/01 08:54:18;;;;;;;9.00;8.15;;;;;;;28.56;41.89;99077.84;5066351;28;20017;-77
2023/07/01 08:56:48;;;;;;;7.00;6.35;;;;;;;28.37;41.73;99020.97;5070560;28;20162;-77
2023/07/01 08:59:14;;;;;;;6.82;6.10;;;;;;;28.57;41.72;99040.63;5070311;28;20040;-77
2023/07/01 09:01:44;;;;;;;8.02;7.32;;;;;;;28.61;41.07;99015.25;5068072;28;20028;-77
2023/07/01 09:04:10;;;;;;;6.15;5.65;;;;;;;28.64;41.03;99009.19;5059661;28;20020;-77
2023/07/01 09:06:35;;;;;;;8.45;7.57;;;;;;;29.08;40.59;99059.22;5056212;28;20029;-75
2023/07/01 09:09:02;;;;;;;7.28;6.60;;;;;;;28.88;40.02;99016.22;5068543;28;20534;-78
2023/07/01 09:11:28;;;;;;;6.32;5.47;;;;;;;28.99;40.16;99002.09;5068984;28;20528;-76
2023/07/01 09:13:55;;;;;;;5.70;5.25;;;;;;;29.26;40.02;99000.28;5064195;28;20033;-77
2023/07/01 09:16:35;;;;;;;4.93;4.53;;;;;;;29.79;38.57;99057.31;5053435;28;20032;-77
2023/07/01 09:19:10;;;;;;;6.57;5.80;;;;;;;30.01;38.90;99053.66;5075466;28;20028;-77
2023/07/01 09:21:37;;;;;;;6.60;5.63;;;;;;;30.15;37.98;99059.00;5079908;28;20024;-76
2023/07/01 09:24:05;;;;;;;13.30;10.88;;;;;;;30.27;37.48;99043.63;5067445;28;20485;-77
2023/07/01 09:26:30;;;;;;;7.22;5.50;;;;;;;30.23;37.01;99010.00;5072882;28;20965;-77
2023/07/01 09:28:58;;;;;;;6.85;6.25;;;;;;;30.36;36.68;99000.84;5068833;28;20052;-77
2023/07/01 09:31:24;;;;;;;5.43;4.93;;;;;;;30.80;36.56;99036.28;5071747;28;20031;-77
2023/07/01 09:34:05;;;;;;;4.95;4.53;;;;;;;30.60;36.15;98975.06;5070772;28;20572;-77
2023/07/01 09:36:31;;;;;;;;;;;;;;;31.12;35.88;99034.91;5071930;28;20102;-77
2023/07/01 09:38:57;;;;;;;5.10;4.57;;;;;;;31.17;35.34;99007.47;5071414;28;19983;-78
2023/07/01 09:41:25;;;;;;;10.30;9.30;;;;;;;31.29;35.16;98994.78;5069110;28;20028;-78
2023/07/01 09:43:51;;;;;;;9.88;8.90;;;;;;;31.31;34.87;98980.00;5064033;28;20017;-78
2023/07/01 09:46:17;;;;;;;7.90;7.20;;;;;;;31.92;34.74;99033.13;5071424;28;20459;-77
2023/07/01 09:48:55;;;;;;;9.38;8.57;;;;;;;32.13;34.08;99033.19;5070948;28;20032;-77
2023/07/01 09:51:29;;;;;;;5.05;4.72;;;;;;;32.08;33.43;98982.28;5072339;28;20077;-78
2023/07/01 09:53:55;;;;;;;6.97;6.20;;;;;;;32.28;33.38;98996.28;5068873;28;20052;-77
2023/07/01 09:56:20;;;;;;;7.00;6.40;;;;;;;32.09;32.55;98959.31;5072170;28;20493;-77
2023/07/01 09:58:47;;;;;;;7.93;7.20;;;;;;;32.47;32.17;98982.94;5068786;28;20112;-76
2023/07/01 10:01:14;;;;;;;8.88;8.07;;;;;;;32.88;32.13;99016.81;5068955;28;20027;-76
2023/07/01 10:03:41;;;;;;;8.52;6.25;;;;;;;32.99;32.23;99016.03;5069222;28;20107;-77
2023/07/01 10:06:07;;;;;;;14.00;12.60;;;;;;;33.17;31.81;99011.16;5071893;28;20083;-77
2023/07/01 10:08:33;;;;;;;8.93;8.10;;;;;;;33.07;31.23;98974.09;5070986;28;20027;-77
2023/07/01 10:11:06;;;;;;;5.55;5.05;;;;;;;33.32;29.52;98999.56;5069874;28;20034;-77
2023/07/01 10:13:40;;;;;;;7.18;5.82;;;;;;;33.24;29.30;98966.81;5071511;28;20017;-77
2023/07/01 10:16:07;;;;;;;7.18;6.57;;;;;;;33.35;29.49;98985.22;5071797;28;20029;-77
2023/07/01 10:18:33;;;;;;;5.40;4.55;;;;;;;33.17;28.84;98946.31;5071817;28;20029;-78
2023/07/01 10:21:23;;;;;;;10.73;9.63;;;;;;;33.60;27.59;98996.16;5070687;28;20039;-78
2023/07/01 10:23:49;;;;;;;5.50;5.00;;;;;;;33.73;27.76;98992.28;5057776;28;20033;-78
2023/07/01 10:26:37;;;;;;;4.60;4.20;;;;;;;33.87;26.62;98981.78;5071848;28;20028;-76
2023/07/01 10:29:28;;;;;;;5.13;3.88;;;;;;;34.01;26.16;98981.38;5070842;28;20025;-77
2023/07/01 10:32:25;;;;;;;5.57;5.00;;;;;;;34.10;26.33;98966.41;5071616;28;20024;-77
2023/07/01 10:34:53;;;;;;;9.27;7.50;;;;;;;34.15;26.45;98967.31;5047313;28;20391;-77
2023/07/01 10:37:21;;;;;;;8.52;7.75;;;;;;;33.87;27.07;98894.13;5071449;28;20035;-77
2023/07/01 10:39:47;;;;;;;6.75;5.43;;;;;;;34.14;27.28;98902.69;5069301;28;20541;-76
2023/07/01 10:42:32;;;;;;;6.30;5.63;;;;;;;34.68;27.03;98955.91;5068129;28;20035;-76
2023/07/01 10:45:13;;;;;;;10.02;9.13;;;;;;;34.84;26.91;98949.66;5059441;28;20017;-76
2023/07/01 10:47:45;;;;;;;4.45;4.05;;;;;;;34.77;27.16;98922.03;5070143;28;20025;-76
2023/07/01 10:50:11;;;;;;;4.05;3.75;;;;;;;35.10;26.36;98940.91;5068735;28;20097;-78
2023/07/01 10:52:55;;;;;;;5.00;4.50;;;;;;;35.13;25.20;98937.47;5068120;28;20033;-75
2023/07/01 10:55:33;;;;;;;7.35;6.60;;;;;;;34.79;26.21;98875.84;5063066;28;20550;-77
2023/07/01 10:58:23;;;;;;;5.70;5.30;;;;;;;35.24;26.09;98939.31;5065130;28;20060;-77
2023/07/01 11:00:53;;;;;;;5.13;4.67;;;;;;;34.85;26.22;98890.91;5059355;28;20138;-78
2023/07/01 11:03:34;;;;;;;5.82;4.70;;;;;;;35.17;26.60;98925.41;5069366;28;20056;-77
2023/07/01 11:06:01;;;;;;;;;;;;;;;35.28;26.28;98926.44;5075592;28;20118;-77
2023/07/01 11:08:27;;;;;;;9.50;8.65;;;;;;;35.39;26.54;98906.72;5091433;28;19908;-76
2023/07/01 11:10:52;;;;;;;4.90;4.30;;;;;;;35.08;25.52;98850.72;5091397;28;20170;-77
2023/07/01 11:13:18;;;;;;;4.70;4.30;;;;;;;35.43;25.62;98877.38;5091542;28;20028;-76
2023/07/01 11:16:02;;;;;;;9.20;8.40;;;;;;;35.59;25.77;98914.63;5091383;28;20115;-77
2023/07/01 11:18:46;;;;;;;11.88;10.80;;;;;;;35.72;25.16;98915.31;5091532;28;20024;-77
2023/07/01 11:21:14;;;;;;;3.58;3.28;;;;;;;35.84;24.87;98906.97;5091380;28;20078;-76
2023/07/01 11:23:50;;;;;;;6.95;6.40;;;;;;;36.01;24.48;98889.25;5091386;28;20028;-77
2023/07/01 11:26:21;;;;;;;5.32;4.82;;;;;;;35.84;24.51;98884.97;5091313;28;20032;-76
2023/07/01 11:28:46;;;;;;;5.72;5.18;;;;;;;35.72;24.33;98852.13;5091310;28;20042;-77
2023/07/01 11:31:24;;;;;;;4.55;4.25;;;;;;;35.73;24.07;98875.69;5090945;28;20527;-77
2023/07/01 11:33:52;;;;;;;3.60;3.30;;;;;;;35.79;24.05;98844.03;5091224;28;20036;-78